createdAt,value
2023-05-27T08:33:44.585Z,17.51
2023-05-27T08:36:12.905Z,17.51
2023-05-27T08:38:39.679Z,17.79
2023-05-27T08:41:06.746Z,17.76
2023-05-27T08:43:35.205Z,17.70
2023-05-27T08:46:02.475Z,17.85
2023-05-27T08:48:29.245Z,18.13
2023-05-27T08:50:56.293Z,18.12
2023-05-27T08:53:23.804Z,17.95
2023-05-27T08:55:52.356Z,17.78
2023-05-27T08:58:19.075Z,17.86
2023-05-27T09:00:45.847Z,17.98
2023-05-27T09:03:12.683Z,18.32
2023-05-27T09:05:39.372Z,18.66
2023-05-27T09:08:06.093Z,18.97
2023-05-27T09:10:39.513Z,18.92
2023-05-27T09:13:06.439Z,18.65
2023-05-27T09:15:33.683Z,18.29
2023-05-27T09:18:00.491Z,18.74
2023-05-27T09:20:28.115Z,19.22
2023-05-27T09:23:01.951Z,19.66
2023-05-27T09:25:28.973Z,19.61
2023-05-27T09:27:56.213Z,20.17
2023-05-27T09:30:23.637Z,19.78
2023-05-27T09:32:50.616Z,20.16
2023-05-27T09:35:17.912Z,20.14
2023-05-27T09:37:46.341Z,20.47
2023-05-27T09:40:14.082Z,20.43
2023-05-27T09:42:44.263Z,20.36
2023-05-27T09:45:14.814Z,20.34
2023-05-27T09:47:44.959Z,20.96
2023-05-27T09:50:12.202Z,19.95
2023-05-27T09:52:44.241Z,19.63
2023-05-27T09:55:15.128Z,20.18
2023-05-27T09:57:41.942Z,20.77
2023-05-27T10:00:12.745Z,20.44
2023-05-27T10:02:49.711Z,20.72
2023-05-27T10:05:17.702Z,20.69
2023-05-27T10:08:00.321Z,20.36
2023-05-27T10:10:31.963Z,19.84
2023-05-27T10:12:58.734Z,19.84
2023-05-27T10:15:28.539Z,19.77
2023-05-27T10:17:56.637Z,18.93
2023-05-27T10:20:36.063Z,19.92
2023-05-27T10:23:28.420Z,19.68
2023-05-27T10:26:08.545Z,19.56
2023-05-27T10:28:42.588Z,19.62
2023-05-27T10:31:10.796Z,19.78
2023-05-27T10:33:44.949Z,20.02
2023-05-27T10:36:14.373Z,20.06
2023-05-27T10:38:42.587Z,19.96
2023-05-27T10:41:09.464Z,20.19
2023-05-27T10:43:36.749Z,20.58
2023-05-27T10:46:11.395Z,20.27
2023-05-27T10:48:40.592Z,20.59
2023-05-27T10:51:10.234Z,20.50
2023-05-27T10:53:37.469Z,20.52
2023-05-27T10:56:04.323Z,20.49
2023-05-27T10:58:31.059Z,20.74
2023-05-27T11:01:01.329Z,21.23
2023-05-27T11:03:31.758Z,21.01
2023-05-27T11:06:02.848Z,20.96
2023-05-27T11:08:30.620Z,20.53
2023-05-27T11:11:00.878Z,20.00
2023-05-27T11:13:34.646Z,19.90
2023-05-27T11:16:02.258Z,19.93
2023-05-27T11:18:42.824Z,20.13
2023-05-27T11:21:10.970Z,19.92
2023-05-27T11:23:44.992Z,20.43
2023-05-27T11:26:18.744Z,20.73
2023-05-27T11:28:55.924Z,20.95
2023-05-27T11:31:27.711Z,20.94
2023-05-27T11:33:54.570Z,21.08
2023-05-27T11:36:24.386Z,21.64
2023-05-27T11:38:52.665Z,21.96
2023-05-27T11:41:23.740Z,21.92
2023-05-27T11:44:08.657Z,22.26
2023-05-27T11:46:42.838Z,21.83
2023-05-27T11:49:13.057Z,21.47
2023-05-27T11:51:46.983Z,21.81
2023-05-27T11:54:36.340Z,21.84
2023-05-27T11:57:08.048Z,21.76
2023-05-27T11:59:35.752Z,22.22
2023-05-27T12:02:02.536Z,22.27
2023-05-27T12:04:29.330Z,22.06
2023-05-27T12:06:56.608Z,22.26
2023-05-27T12:09:24.781Z,22.48
2023-05-27T12:11:51.472Z,22.50
2023-05-27T12:14:18.198Z,22.40
2023-05-27T12:16:44.942Z,22.48
2023-05-27T12:19:12.787Z,22.59
2023-05-27T12:21:39.657Z,22.53
2023-05-27T12:24:07.192Z,22.47
2023-05-27T12:26:33.985Z,21.89
2023-05-27T12:29:00.837Z,22.12
2023-05-27T12:31:27.540Z,22.30
2023-05-27T12:33:54.305Z,22.46
2023-05-27T12:36:21.015Z,22.52
2023-05-27T12:38:47.770Z,22.38
2023-05-27T12:41:14.674Z,21.97
2023-05-27T12:43:41.368Z,21.58
2023-05-27T12:46:08.015Z,21.84
2023-05-27T12:48:34.728Z,22.54
2023-05-27T12:51:01.580Z,23.21
2023-05-27T12:53:28.394Z,23.99
2023-05-27T12:55:55.093Z,24.34
2023-05-27T12:58:21.835Z,23.30
2023-05-27T13:00:49.273Z,23.98
2023-05-27T13:03:16.229Z,24.46
2023-05-27T13:05:43.006Z,23.48
2023-05-27T13:08:09.772Z,22.42
2023-05-27T13:10:36.504Z,22.24
2023-05-27T13:13:03.671Z,22.61
2023-05-27T13:15:30.570Z,23.57
2023-05-27T13:17:57.451Z,23.64
2023-05-27T13:20:25.273Z,23.19
2023-05-27T13:22:52.238Z,22.02
2023-05-27T13:25:18.962Z,21.92
2023-05-27T13:27:46.128Z,22.97
2023-05-27T13:30:16.647Z,23.98
2023-05-27T13:32:44.149Z,24.93
2023-05-27T13:35:15.100Z,25.30
2023-05-27T13:37:42.153Z,25.42
2023-05-27T13:40:09.282Z,25.07
2023-05-27T13:42:36.664Z,24.05
2023-05-27T13:45:03.518Z,23.84
2023-05-27T13:47:30.841Z,24.60
2023-05-27T13:49:57.492Z,24.75
2023-05-27T13:52:24.740Z,24.73
2023-05-27T13:54:51.411Z,25.29
2023-05-27T13:57:18.158Z,24.98
2023-05-27T13:59:44.918Z,24.01
2023-05-27T14:02:11.740Z,23.87
2023-05-27T14:04:38.539Z,23.63
2023-05-27T14:07:05.477Z,23.41
2023-05-27T14:09:32.236Z,23.03
2023-05-27T14:11:58.854Z,22.97
2023-05-27T14:14:25.636Z,23.10
2023-05-27T14:16:52.401Z,23.68
2023-05-27T14:19:19.537Z,23.86
2023-05-27T14:21:46.559Z,23.97
2023-05-27T14:24:13.963Z,24.53
2023-05-27T14:26:41.613Z,24.61
2023-05-27T14:29:08.302Z,24.98
2023-05-27T14:31:35.033Z,25.11
2023-05-27T14:34:01.801Z,25.44
2023-05-27T14:36:28.557Z,26.15
2023-05-27T14:38:55.437Z,26.11
2023-05-27T14:41:23.172Z,26.36
2023-05-27T14:43:55.198Z,26.84
2023-05-27T14:46:22.872Z,26.49
2023-05-27T14:48:49.704Z,26.27
2023-05-27T14:51:17.397Z,25.85
2023-05-27T14:53:44.095Z,25.76
2023-05-27T14:56:10.814Z,26.48
2023-05-27T14:58:37.643Z,26.11
2023-05-27T15:01:04.465Z,26.25
2023-05-27T15:03:31.915Z,26.88
2023-05-27T15:05:59.356Z,26.75
2023-05-27T15:08:26.692Z,26.71
2023-05-27T15:10:54.310Z,26.22
2023-05-27T15:13:21.528Z,26.52
2023-05-27T15:15:48.433Z,26.26
2023-05-27T15:18:15.686Z,25.75
2023-05-27T15:20:42.640Z,25.07
2023-05-27T15:23:09.632Z,24.84
2023-05-27T15:25:36.506Z,24.47
2023-05-27T15:28:03.240Z,24.13
2023-05-27T15:30:30.018Z,24.37
2023-05-27T15:32:56.809Z,24.30
2023-05-27T15:35:23.474Z,25.05
2023-05-27T15:37:50.398Z,25.38
2023-05-27T15:40:17.331Z,25.79
2023-05-27T15:42:44.326Z,25.73
2023-05-27T15:45:11.535Z,25.30
2023-05-27T15:47:38.324Z,25.54
2023-05-27T15:50:05.456Z,25.85
2023-05-27T15:52:32.444Z,26.24
2023-05-27T15:54:59.201Z,26.47
2023-05-27T15:57:25.898Z,26.37
2023-05-27T15:59:52.956Z,26.65
2023-05-27T16:02:19.777Z,26.38
2023-05-27T16:04:47.273Z,26.35
2023-05-27T16:07:14.803Z,26.15
2023-05-27T16:09:41.533Z,25.02
2023-05-27T16:12:08.322Z,25.33
2023-05-27T16:14:35.226Z,25.57
2023-05-27T16:17:02.042Z,25.57
2023-05-27T16:19:28.670Z,25.82
2023-05-27T16:21:55.328Z,25.40
2023-05-27T16:24:22.080Z,25.10
2023-05-27T16:26:48.826Z,24.52
2023-05-27T16:29:15.552Z,24.03
2023-05-27T16:31:42.338Z,23.89
2023-05-27T16:34:08.998Z,23.67
2023-05-27T16:36:37.607Z,23.06
2023-05-27T16:39:07.037Z,22.75
2023-05-27T16:41:33.841Z,22.83
2023-05-27T16:44:00.542Z,22.73
2023-05-27T16:46:27.701Z,22.59
2023-05-27T16:48:54.536Z,22.27
2023-05-27T16:51:21.321Z,22.12
2023-05-27T16:53:47.975Z,22.22
2023-05-27T16:56:14.805Z,22.05
2023-05-27T16:58:41.616Z,21.88
2023-05-27T17:01:08.446Z,21.80
2023-05-27T17:03:35.176Z,22.27
2023-05-27T17:06:01.940Z,22.19
2023-05-27T17:08:28.589Z,21.95
2023-05-27T17:10:55.249Z,21.36
2023-05-27T17:13:22.460Z,20.67
2023-05-27T17:15:49.237Z,20.38
2023-05-27T17:18:16.116Z,20.15
2023-05-27T17:20:42.797Z,19.79
2023-05-27T17:23:09.597Z,19.96
2023-05-27T17:25:36.334Z,20.02
2023-05-27T17:28:03.607Z,19.70
2023-05-27T17:30:30.720Z,19.57
2023-05-27T17:32:57.566Z,19.56
2023-05-27T17:35:24.258Z,19.56
2023-05-27T17:37:51.186Z,19.56
2023-05-27T17:40:17.837Z,18.92
2023-05-27T17:42:44.678Z,18.33
2023-05-27T17:45:11.319Z,18.42
2023-05-27T17:47:38.125Z,18.33
2023-05-27T17:50:05.092Z,18.48
2023-05-27T17:52:31.793Z,17.90
2023-05-27T17:54:58.523Z,17.32
2023-05-27T17:57:25.398Z,17.41
2023-05-27T17:59:52.110Z,17.12
2023-05-27T18:02:18.885Z,17.05
2023-05-27T18:04:45.808Z,17.36
2023-05-27T18:07:12.489Z,17.54
2023-05-27T18:09:42.215Z,17.88
2023-05-27T18:12:09.218Z,18.13
2023-05-27T18:14:36.147Z,18.38
2023-05-27T18:17:06.776Z,18.54
2023-05-27T18:19:33.665Z,18.73
2023-05-27T18:22:00.363Z,18.48
2023-05-27T18:24:27.298Z,18.27
2023-05-27T18:26:54.864Z,18.37
